Time;durP1;ratioP1;P1;durP2;ratioP2;P2;SDS_P1;SDS_P2;PMS_P1;PMS_P2;Temp;Humidity;BMP_temperature;BMP_pressure;BME280_temperature;BME280_humidity;BME280_pressure;Samples;Min_cycle;Max_cycle;Signal;HPM_P1;HPM_P2
2023/04/24 00:00:58;;;;;;;0.65;0.40;;;11.70;99.90;;;;;;4970311;28;20035;-70
2023/04/24 00:03:24;;;;;;;2.00;0.85;;;11.70;99.90;;;;;;4964515;28;20038;-70
2023/04/24 00:05:50;;;;;;;0.88;0.57;;;11.70;99.90;;;;;;4972177;28;20031;-70
2023/04/24 00:08:17;;;;;;;2.15;0.82;;;11.70;99.90;;;;;;4988116;28;20507;-70
2023/04/24 00:10:43;;;;;;;1.15;0.82;;;11.60;99.90;;;;;;4973268;28;20613;-70
2023/04/24 00:13:09;;;;;;;1.35;0.40;;;11.70;99.90;;;;;;4986521;28;20110;-70
2023/04/24 00:15:35;;;;;;;1.75;0.70;;;11.70;99.90;;;;;;4973612;28;20031;-70
2023/04/24 00:18:01;;;;;;;1.50;0.82;;;11.70;99.90;;;;;;4971037;28;20556;-70
2023/04/24 00:20:32;;;;;;;1.02;0.60;;;11.80;99.90;;;;;;4974160;28;20093;-70
2023/04/24 00:22:58;;;;;;;;;;;11.70;99.90;;;;;;4971172;28;20050;-70
2023/04/24 00:25:23;;;;;;;0.65;0.35;;;11.70;99.90;;;;;;4969471;28;20016;-71
2023/04/24 00:27:50;;;;;;;0.20;0.20;;;11.80;99.90;;;;;;4968100;28;20019;-70
2023/04/24 00:30:16;;;;;;;0.52;0.47;;;11.90;99.90;;;;;;4973767;28;20576;-70
2023/04/24 00:32:41;;;;;;;0.85;0.52;;;11.90;99.90;;;;;;4970900;28;20058;-70
2023/04/24 00:35:07;;;;;;;0.20;0.17;;;11.80;99.90;;;;;;4973269;28;20113;-70
2023/04/24 00:37:33;;;;;;;1.17;0.30;;;11.90;99.90;;;;;;4970683;28;20057;-70
2023/04/24 00:39:59;;;;;;;3.17;0.70;;;11.90;99.90;;;;;;4973580;28;20035;-70
2023/04/24 00:42:25;;;;;;;0.43;0.40;;;11.90;99.90;;;;;;4970371;28;20048;-70
2023/04/24 00:44:51;;;;;;;0.93;0.40;;;11.90;99.90;;;;;;4973301;28;20166;-70
2023/04/24 00:47:18;;;;;;;2.33;0.50;;;12.00;99.90;;;;;;4969953;28;20046;-70
2023/04/24 00:49:44;;;;;;;1.65;0.75;;;12.00;99.90;;;;;;4968734;28;20031;-70
2023/04/24 00:52:10;;;;;;;1.65;0.60;;;11.90;99.90;;;;;;4963689;28;20046;-70
2023/04/24 00:54:36;;;;;;;0.68;0.50;;;11.90;99.90;;;;;;4972851;28;20035;-70
2023/04/24 00:57:05;;;;;;;4.22;0.88;;;11.90;99.90;;;;;;4970201;28;20097;-70
2023/04/24 00:59:31;;;;;;;0.65;0.30;;;11.90;99.90;;;;;;4972913;28;20042;-70
2023/04/24 01:01:58;;;;;;;0.60;0.43;;;11.80;99.90;;;;;;4970090;28;20402;-71
2023/04/24 01:04:25;;;;;;;1.52;0.57;;;11.80;99.90;;;;;;4961005;28;20031;-70
2023/04/24 01:06:52;;;;;;;1.48;0.35;;;11.90;99.90;;;;;;4964275;28;20031;-70
2023/04/24 01:09:18;;;;;;;0.65;0.30;;;11.90;99.90;;;;;;4972558;28;20031;-70
2023/04/24 01:11:44;;;;;;;2.03;0.73;;;11.90;99.90;;;;;;4968281;28;20027;-71
2023/04/24 01:14:11;;;;;;;0.50;0.40;;;11.90;99.90;;;;;;4972439;28;20394;-70
2023/04/24 01:16:38;;;;;;;2.15;0.60;;;11.90;99.90;;;;;;4964977;28;20118;-70
2023/04/24 01:19:06;;;;;;;2.17;0.60;;;11.90;99.90;;;;;;4969745;28;20513;-70
2023/04/24 01:21:37;;;;;;;0.47;0.38;;;11.80;99.90;;;;;;4964802;28;20042;-70
2023/04/24 01:24:05;;;;;;;0.80;0.50;;;11.80;99.90;;;;;;4952314;28;20027;-70
2023/04/24 01:26:31;;;;;;;0.60;0.43;;;11.70;99.90;;;;;;4969506;28;20499;-70
2023/04/24 01:28:57;;;;;;;7.07;0.50;;;11.80;99.90;;;;;;4971389;28;20150;-71
2023/04/24 01:31:23;;;;;;;0.82;0.50;;;11.70;99.90;;;;;;4970089;28;20038;-71
2023/04/24 01:33:51;;;;;;;1.02;0.40;;;11.70;99.90;;;;;;4970681;28;20031;-70
2023/04/24 01:36:16;;;;;;;12.30;0.73;;;11.70;99.90;;;;;;4969849;28;20112;-71
2023/04/24 01:38:42;;;;;;;0.30;0.30;;;11.60;99.90;;;;;;4972065;28;20108;-70
2023/04/24 01:41:08;;;;;;;2.35;0.55;;;11.70;99.90;;;;;;4969433;28;20043;-71
2023/04/24 01:43:34;;;;;;;0.77;0.63;;;11.70;99.90;;;;;;4972270;28;20031;-71
2023/04/24 01:45:59;;;;;;;1.33;0.50;;;11.70;99.90;;;;;;4969730;28;20137;-71
2023/04/24 01:48:26;;;;;;;5.57;0.98;;;11.70;99.90;;;;;;4971770;28;20399;-70
2023/04/24 01:50:51;;;;;;;3.97;0.75;;;11.70;99.90;;;;;;4969740;28;20050;-71
2023/04/24 01:53:17;;;;;;;5.35;0.63;;;11.70;99.90;;;;;;4970935;28;20113;-71
2023/04/24 01:55:43;;;;;;;0.95;0.50;;;11.80;99.90;;;;;;4971106;28;20023;-70
2023/04/24 01:58:09;;;;;;;1.63;0.73;;;11.70;99.90;;;;;;4970093;28;20031;-71
2023/04/24 02:00:35;;;;;;;1.95;0.50;;;11.70;99.90;;;;;;4971720;28;20122;-71
2023/04/24 02:03:01;;;;;;;0.50;0.40;;;11.70;99.90;;;;;;4969087;28;20134;-71
2023/04/24 02:05:28;;;;;;;1.65;0.52;;;11.70;99.90;;;;;;4971776;28;20526;-71
2023/04/24 02:07:53;;;;;;;0.43;0.40;;;11.70;99.90;;;;;;4967626;28;20050;-71
2023/04/24 02:10:19;;;;;;;1.17;0.73;;;11.70;99.90;;;;;;4971948;28;20027;-71
2023/04/24 02:12:45;;;;;;;1.35;0.47;;;11.70;99.90;;;;;;4968553;28;20114;-70
2023/04/24 02:15:12;;;;;;;0.82;0.50;;;11.70;99.90;;;;;;4971794;28;20054;-71
2023/04/24 02:17:38;;;;;;;0.73;0.50;;;11.50;99.90;;;;;;4968907;28;20027;-70
2023/04/24 02:20:06;;;;;;;2.00;1.15;;;11.60;99.90;;;;;;4967560;28;20093;-71
2023/04/24 02:22:32;;;;;;;5.20;0.65;;;11.60;99.90;;;;;;4959936;28;20027;-71
2023/04/24 02:24:57;;;;;;;0.50;0.50;;;11.60;99.90;;;;;;4968350;28;20035;-71
2023/04/24 02:27:23;;;;;;;0.70;0.40;;;11.60;99.90;;;;;;4968716;28;20546;-71
2023/04/24 02:29:49;;;;;;;0.65;0.52;;;11.60;99.90;;;;;;4971813;28;20390;-71
2023/04/24 02:32:15;;;;;;;1.20;0.75;;;11.60;99.90;;;;;;4968659;28;20198;-70
2023/04/24 02:34:41;;;;;;;5.40;0.47;;;11.60;99.90;;;;;;4971212;28;20479;-69
2023/04/24 02:37:06;;;;;;;0.45;0.32;;;11.60;99.90;;;;;;4968077;28;20042;-70
2023/04/24 02:39:32;;;;;;;0.40;0.30;;;11.70;99.90;;;;;;4971552;28;20041;-70
2023/04/24 02:41:58;;;;;;;0.50;0.30;;;11.70;99.90;;;;;;4968851;28;20049;-70
2023/04/24 02:44:23;;;;;;;5.43;0.90;;;11.70;99.90;;;;;;4971104;28;20038;-70
2023/04/24 02:46:49;;;;;;;0.60;0.40;;;11.80;99.90;;;;;;4968543;28;20476;-70
2023/04/24 02:49:15;;;;;;;1.63;0.60;;;11.60;99.90;;;;;;4971659;28;20058;-72
2023/04/24 02:51:41;;;;;;;0.30;0.28;;;11.50;99.90;;;;;;4970346;28;20490;-71
2023/04/24 02:54:09;;;;;;;0.55;0.40;;;11.30;99.90;;;;;;4975119;28;20038;-71
2023/04/24 02:56:35;;;;;;;0.60;0.35;;;10.90;99.90;;;;;;4971912;28;20490;-71
2023/04/24 02:59:01;;;;;;;0.52;0.40;;;10.70;99.90;;;;;;4975237;28;20030;-71
2023/04/24 03:01:27;;;;;;;0.55;0.50;;;10.60;99.90;;;;;;4969529;28;20036;-71
2023/04/24 03:03:52;;;;;;;2.67;0.80;;;10.50;99.90;;;;;;4970810;28;20121;-71
2023/04/24 03:06:18;;;;;;;0.68;0.50;;;10.50;99.90;;;;;;4972069;28;20402;-72
2023/04/24 03:08:44;;;;;;;0.47;0.40;;;10.60;99.90;;;;;;4974916;28;20023;-71
2023/04/24 03:11:09;;;;;;;1.42;0.77;;;10.60;99.90;;;;;;4972249;28;20042;-71
2023/04/24 03:13:35;;;;;;;2.47;0.70;;;10.60;99.90;;;;;;4974694;28;20089;-71
2023/04/24 03:16:01;;;;;;;2.15;0.63;;;10.60;99.90;;;;;;4972194;28;20045;-71
2023/04/24 03:18:26;;;;;;;3.45;1.15;;;10.60;99.90;;;;;;4974756;28;20086;-71
2023/04/24 03:20:52;;;;;;;1.50;0.55;;;10.60;99.90;;;;;;4972723;28;20026;-71
2023/04/24 03:23:18;;;;;;;1.10;0.75;;;10.50;99.90;;;;;;4973728;28;20045;-71
2023/04/24 03:25:45;;;;;;;1.35;0.45;;;10.50;99.90;;;;;;4973884;28;20134;-72
2023/04/24 03:28:10;;;;;;;1.67;0.98;;;10.60;99.90;;;;;;4972775;28;20570;-72
2023/04/24 03:30:36;;;;;;;1.10;0.77;;;10.50;99.90;;;;;;4974179;28;20066;-72
2023/04/24 03:33:02;;;;;;;1.15;0.80;;;10.60;99.90;;;;;;4971706;28;20058;-72
2023/04/24 03:35:28;;;;;;;2.20;0.88;;;10.50;99.90;;;;;;4978395;23;20092;-76
2023/04/24 03:37:53;;;;;;;1.05;0.60;;;10.40;99.90;;;;;;4954733;29;20395;-75
2023/04/24 03:40:19;;;;;;;1.05;0.60;;;10.40;99.90;;;;;;4967363;28;20090;-75
2023/04/24 03:42:45;;;;;;;0.93;0.40;;;10.40;99.90;;;;;;4954706;29;20035;-75
2023/04/24 03:45:10;;;;;;;3.45;0.80;;;10.40;99.90;;;;;;4952492;29;20036;-76
2023/04/24 03:47:36;;;;;;;0.95;0.68;;;10.30;99.90;;;;;;4954989;28;20042;-75
2023/04/24 03:50:02;;;;;;;1.92;0.77;;;10.30;99.90;;;;;;4952663;28;20027;-76
2023/04/24 03:52:28;;;;;;;0.85;0.60;;;10.40;99.90;;;;;;4954464;29;20423;-76
2023/04/24 03:54:53;;;;;;;1.35;0.77;;;10.30;99.90;;;;;;4953101;29;20487;-76
2023/04/24 03:57:19;;;;;;;1.73;0.65;;;10.30;99.90;;;;;;4946732;29;20075;-75
2023/04/24 03:59:45;;;;;;;0.90;0.55;;;10.30;99.90;;;;;;4954239;28;20039;-76
2023/04/24 04:02:11;;;;;;;0.80;0.50;;;10.30;99.90;;;;;;4953300;28;20035;-77
2023/04/24 04:04:36;;;;;;;3.28;0.80;;;10.20;99.90;;;;;;4954333;28;20042;-76
2023/04/24 04:07:02;;;;;;;1.75;0.75;;;10.20;99.90;;;;;;4952191;28;20483;-76
2023/04/24 04:09:29;;;;;;;4.75;0.93;;;10.20;99.90;;;;;;4953677;29;20035;-76
2023/04/24 04:11:55;;;;;;;1.33;0.77;;;10.20;99.90;;;;;;4952009;29;20059;-76
2023/04/24 04:14:21;;;;;;;0.80;0.50;;;10.20;99.90;;;;;;4952973;29;20063;-77
2023/04/24 04:16:47;;;;;;;3.88;0.95;;;10.20;99.90;;;;;;4952081;28;20023;-77
2023/04/24 04:19:13;;;;;;;1.95;0.80;;;10.10;99.90;;;;;;4954289;29;20027;-76
2023/04/24 04:21:39;;;;;;;1.27;0.82;;;10.10;99.90;;;;;;4952238;28;20055;-76
2023/04/24 04:24:05;;;;;;;1.83;0.75;;;10.10;99.90;;;;;;4954202;28;20527;-77
2023/04/24 04:26:32;;;;;;;0.82;0.60;;;10.10;99.90;;;;;;4951661;29;20034;-76
2023/04/24 04:29:00;;;;;;;1.13;0.88;;;10.00;99.90;;;;;;4954446;28;20130;-76
2023/04/24 04:31:26;;;;;;;2.45;1.60;;;10.00;99.90;;;;;;4951898;29;20487;-77
2023/04/24 04:33:52;;;;;;;1.33;0.80;;;9.90;99.90;;;;;;4936798;29;20042;-77
2023/04/24 04:36:17;;;;;;;0.98;0.75;;;10.00;99.90;;;;;;4951835;29;20036;-78
2023/04/24 04:38:44;;;;;;;1.08;0.73;;;10.00;99.90;;;;;;4954296;29;20043;-78
2023/04/24 04:41:10;;;;;;;1.70;0.93;;;9.90;99.90;;;;;;4950603;28;20130;-78
2023/04/24 04:43:37;;;;;;;1.60;0.93;;;9.90;99.90;;;;;;4953850;29;20031;-78
2023/04/24 04:46:03;;;;;;;1.63;0.95;;;9.80;99.90;;;;;;4951617;28;20042;-79
2023/04/24 04:48:31;;;;;;;9.90;1.15;;;9.90;99.90;;;;;;4953876;29;20023;-79
2023/04/24 04:50:58;;;;;;;1.00;0.63;;;9.80;99.90;;;;;;4951072;28;20034;-79
2023/04/24 04:53:23;;;;;;;2.28;1.20;;;9.70;99.90;;;;;;4944551;29;20130;-79
2023/04/24 04:55:49;;;;;;;4.85;1.17;;;9.80;99.90;;;;;;4952142;29;20024;-79
2023/04/24 04:58:15;;;;;;;2.00;1.25;;;9.70;99.90;;;;;;4953610;29;20521;-78
2023/04/24 05:00:41;;;;;;;2.55;1.13;;;9.70;99.90;;;;;;4951008;29;20045;-78
2023/04/24 05:03:07;;;;;;;5.22;1.52;;;9.60;99.90;;;;;;4953382;29;20035;-78
2023/04/24 05:05:32;;;;;;;3.58;1.13;;;9.60;99.90;;;;;;4951193;28;20110;-78
2023/04/24 05:07:58;;;;;;;1.75;1.02;;;9.60;99.90;;;;;;4952437;29;20035;-78
2023/04/24 05:10:24;;;;;;;2.17;1.20;;;9.60;99.90;;;;;;4951295;29;20534;-78
2023/04/24 05:12:50;;;;;;;1.95;1.10;;;9.70;99.90;;;;;;4952105;29;20027;-78
2023/04/24 05:15:16;;;;;;;2.13;0.93;;;9.70;99.90;;;;;;4948972;28;20027;-79
2023/04/24 05:17:41;;;;;;;1.85;1.02;;;9.80;99.90;;;;;;4953433;29;20031;-78
2023/04/24 05:20:08;;;;;;;1.48;0.93;;;9.90;99.90;;;;;;4951001;29;20036;-78
2023/04/24 05:22:34;;;;;;;4.88;1.40;;;9.90;99.90;;;;;;4951882;29;20043;-78
2023/04/24 05:24:59;;;;;;;2.35;1.13;;;10.00;99.90;;;;;;4950670;28;20146;-79
2023/04/24 05:27:25;;;;;;;1.77;1.30;;;10.10;99.90;;;;;;4951788;29;20391;-78
2023/04/24 05:29:51;;;;;;;2.15;1.30;;;10.20;99.90;;;;;;4951907;29;20031;-77
2023/04/24 05:32:17;;;;;;;1.65;0.95;;;10.20;99.90;;;;;;4952050;29;20035;-78
2023/04/24 05:34:42;;;;;;;2.67;1.60;;;10.20;99.90;;;;;;4952058;29;20041;-77
2023/04/24 05:37:09;;;;;;;2.47;1.23;;;10.30;99.90;;;;;;4950876;29;20035;-79
2023/04/24 05:39:36;;;;;;;7.85;1.80;;;10.30;99.90;;;;;;4953046;29;20039;-78
2023/04/24 05:42:04;;;;;;;3.40;1.80;;;10.30;99.90;;;;;;4949041;29;20067;-80
2023/04/24 05:44:30;;;;;;;2.13;1.45;;;10.30;99.90;;;;;;4951610;29;20045;-79
2023/04/24 05:46:56;;;;;;;1.92;1.20;;;10.30;99.90;;;;;;4950349;28;20131;-79
2023/04/24 05:49:22;;;;;;;3.55;2.08;;;10.40;99.90;;;;;;4953167;28;20106;-79
2023/04/24 05:51:48;;;;;;;2.85;1.90;;;10.50;99.90;;;;;;4950393;28;20487;-79
2023/04/24 05:54:14;;;;;;;3.92;1.55;;;10.60;99.90;;;;;;4952762;29;20035;-80
2023/04/24 05:56:40;;;;;;;3.45;1.70;;;10.70;99.90;;;;;;4950153;29;20043;-80
2023/04/24 05:59:07;;;;;;;4.32;1.55;;;10.70;99.90;;;;;;4953276;28;20078;-80
2023/04/24 06:01:33;;;;;;;4.30;2.03;;;10.70;99.90;;;;;;4950759;28;20089;-80
2023/04/24 06:03:59;;;;;;;3.63;1.70;;;10.60;99.90;;;;;;4951767;29;20035;-81
2023/04/24 06:06:25;;;;;;;4.03;1.85;;;10.60;99.90;;;;;;4950192;29;20439;-80
2023/04/24 06:08:51;;;;;;;3.70;1.98;;;10.60;99.90;;;;;;4953159;29;20546;-80
2023/04/24 06:11:17;;;;;;;6.47;1.63;;;10.60;99.90;;;;;;4950105;29;20039;-80
2023/04/24 06:13:42;;;;;;;2.38;1.60;;;10.60;99.90;;;;;;4952784;29;20062;-81
2023/04/24 06:16:08;;;;;;;2.22;1.23;;;10.50;99.90;;;;;;4950395;29;20035;-81
2023/04/24 06:18:34;;;;;;;3.58;2.40;;;10.60;99.90;;;;;;4951499;29;20046;-80
2023/04/24 06:21:00;;;;;;;5.63;2.30;;;10.60;99.90;;;;;;4952489;29;20035;-83
2023/04/24 06:23:26;;;;;;;3.55;1.40;;;10.60;99.90;;;;;;4953699;28;20034;-81
2023/04/24 06:25:52;;;;;;;3.50;1.77;;;10.60;99.90;;;;;;4952538;29;20028;-82
2023/04/24 06:28:18;;;;;;;2.78;1.38;;;10.60;99.90;;;;;;4955777;29;20043;-83
2023/04/24 06:30:44;;;;;;;3.30;1.27;;;10.80;99.90;;;;;;4953929;29;20034;-83
2023/04/24 06:33:10;;;;;;;2.63;1.60;;;10.70;99.90;;;;;;4953038;28;20054;-83
2023/04/24 06:35:37;;;;;;;1.40;0.98;;;10.70;99.90;;;;;;4950269;28;20023;-83
2023/04/24 06:38:03;;;;;;;1.88;1.33;;;10.50;99.90;;;;;;4951314;29;20558;-83
2023/04/24 06:40:30;;;;;;;2.28;1.30;;;10.50;99.90;;;;;;4949442;29;20102;-83
2023/04/24 06:42:57;;;;;;;13.95;1.77;;;10.50;99.90;;;;;;4952166;28;20404;-81
2023/04/24 06:45:23;;;;;;;5.22;1.40;;;10.30;99.90;;;;;;4947415;28;20028;-81
2023/04/24 06:47:49;;;;;;;2.88;1.40;;;10.20;99.90;;;;;;4939807;29;20535;-79
2023/04/24 06:50:15;;;;;;;2.22;1.15;;;10.00;99.90;;;;;;4950237;29;20506;-78
2023/04/24 06:52:41;;;;;;;2.45;1.25;;;9.90;99.90;;;;;;4952159;29;20503;-78
2023/04/24 06:55:07;;;;;;;2.00;1.30;;;9.80;99.90;;;;;;4948699;29;20028;-78
2023/04/24 06:57:33;;;;;;;1.40;0.82;;;9.70;99.90;;;;;;4952385;29;20035;-78
2023/04/24 06:59:59;;;;;;;1.67;0.90;;;9.70;99.90;;;;;;4949524;28;20043;-78
2023/04/24 07:02:25;;;;;;;3.72;2.50;;;9.80;99.90;;;;;;4952099;29;20028;-78
2023/04/24 07:04:51;;;;;;;5.10;1.08;;;9.80;99.90;;;;;;4950447;28;20082;-78
2023/04/24 07:07:16;;;;;;;1.55;0.90;;;9.80;99.90;;;;;;4951419;29;20027;-78
2023/04/24 07:09:42;;;;;;;1.15;0.60;;;9.80;99.90;;;;;;4952013;29;20041;-79
2023/04/24 07:12:10;;;;;;;1.80;1.00;;;9.80;99.90;;;;;;4950202;29;20027;-79
2023/04/24 07:14:37;;;;;;;1.48;0.80;;;9.90;99.90;;;;;;4952094;29;20038;-79
2023/04/24 07:17:04;;;;;;;2.30;1.05;;;9.90;99.90;;;;;;4949871;29;20114;-80
2023/04/24 07:19:30;;;;;;;3.33;0.80;;;10.00;99.90;;;;;;4952339;28;20090;-80
2023/04/24 07:21:58;;;;;;;3.15;1.05;;;10.00;99.90;;;;;;4949863;29;20043;-80
2023/04/24 07:24:24;;;;;;;1.13;0.80;;;10.00;99.90;;;;;;4932807;29;20407;-81
2023/04/24 07:26:52;;;;;;;2.13;0.82;;;10.10;99.90;;;;;;4947845;29;20451;-82
2023/04/24 07:29:19;;;;;;;1.05;0.68;;;10.10;99.90;;;;;;4950945;28;20031;-82
2023/04/24 07:31:45;;;;;;;1.05;0.70;;;10.30;99.90;;;;;;4948279;28;20031;-82
2023/04/24 07:34:11;;;;;;;0.80;0.55;;;10.40;99.90;;;;;;4951692;29;20069;-82
2023/04/24 07:36:38;;;;;;;1.10;0.50;;;10.30;99.90;;;;;;4949818;28;20034;-82
2023/04/24 07:39:05;;;;;;;0.82;0.63;;;10.40;99.90;;;;;;4954252;29;20380;-81
2023/04/24 07:41:31;;;;;;;0.68;0.45;;;10.40;99.90;;;;;;4953014;28;20031;-82
2023/04/24 07:43:58;;;;;;;0.52;0.30;;;10.50;99.90;;;;;;4953850;29;20380;-81
2023/04/24 07:46:24;;;;;;;1.38;0.70;;;10.30;99.90;;;;;;4952900;28;20054;-81
2023/04/24 07:48:50;;;;;;;0.80;0.63;;;10.30;99.90;;;;;;4953965;28;20070;-82
2023/04/24 07:51:16;;;;;;;1.25;0.60;;;10.40;99.90;;;;;;4951447;29;20036;-82
2023/04/24 07:53:43;;;;;;;1.02;0.60;;;10.50;99.90;;;;;;4953729;29;20031;-82
2023/04/24 07:56:09;;;;;;;2.80;1.05;;;10.70;99.90;;;;;;4952570;29;20027;-83
2023/04/24 07:58:35;;;;;;;1.40;0.80;;;10.80;99.90;;;;;;4954157;29;20115;-83
2023/04/24 08:01:01;;;;;;;1.00;0.75;;;11.00;99.90;;;;;;4934927;29;20106;-82
2023/04/24 08:03:27;;;;;;;2.88;0.70;;;11.10;99.90;;;;;;4937315;29;20046;-82
2023/04/24 08:05:52;;;;;;;1.13;0.85;;;11.40;99.90;;;;;;4941923;29;20161;-82
2023/04/24 08:08:22;;;;;;;3.65;1.00;;;11.60;99.90;;;;;;4937525;29;20042;-82
2023/04/24 08:10:48;;;;;;;1.52;0.75;;;11.70;99.90;;;;;;4937645;29;20035;-84
2023/04/24 08:13:13;;;;;;;1.92;1.05;;;11.70;99.90;;;;;;4949852;28;20058;-83
2023/04/24 08:15:39;;;;;;;1.58;0.80;;;11.60;99.90;;;;;;4914034;29;20079;-84
2023/04/24 08:18:05;;;;;;;1.00;0.52;;;11.70;99.90;;;;;;4939418;29;20121;-83
2023/04/24 08:20:31;;;;;;;1.02;0.68;;;11.80;99.90;;;;;;4941073;28;20053;-83
2023/04/24 08:22:57;;;;;;;0.82;0.60;;;11.80;99.90;;;;;;4939099;29;20043;-84
2023/04/24 08:25:24;;;;;;;3.15;1.00;;;11.80;99.90;;;;;;4939287;29;20480;-83
2023/04/24 08:27:51;;;;;;;1.17;0.70;;;12.00;99.90;;;;;;4938932;29;20059;-83
2023/04/24 08:30:17;;;;;;;0.63;0.45;;;12.00;99.90;;;;;;4941137;29;20118;-84
2023/04/24 08:32:43;;;;;;;4.57;0.95;;;12.00;99.90;;;;;;4940299;29;20523;-84
2023/04/24 08:35:09;;;;;;;1.27;0.70;;;11.90;99.90;;;;;;4934035;28;20114;-83
2023/04/24 08:37:35;;;;;;;3.60;1.15;;;11.90;99.90;;;;;;4936198;29;20254;-84
2023/04/24 08:40:06;;;;;;;1.83;0.98;;;12.10;99.90;;;;;;4939610;28;20039;-84
2023/04/24 08:42:35;;;;;;;1.02;0.75;;;12.00;99.90;;;;;;4921845;29;20523;-86
2023/04/24 08:45:02;;;;;;;1.05;0.85;;;12.00;99.90;;;;;;4937935;29;20884;-84
2023/04/24 08:47:29;;;;;;;3.28;1.02;;;12.20;99.90;;;;;;4943134;28;20115;-86
2023/04/24 08:49:57;;;;;;;1.63;0.98;;;12.20;99.90;;;;;;4949950;28;20038;-83
2023/04/24 08:52:23;;;;;;;1.00;0.90;;;12.30;99.90;;;;;;4968345;28;20030;-82
2023/04/24 08:54:49;;;;;;;3.25;0.88;;;12.50;99.90;;;;;;4946773;29;20198;-82
2023/04/24 08:57:16;;;;;;;2.60;1.30;;;12.50;99.90;;;;;;4952329;29;20495;-83
2023/04/24 08:59:42;;;;;;;1.63;0.82;;;12.30;99.90;;;;;;4953579;29;20037;-81
2023/04/24 09:02:11;;;;;;;0.60;0.45;;;12.10;99.90;;;;;;4952890;29;20062;-81
2023/04/24 09:04:37;;;;;;;4.05;1.00;;;12.20;99.90;;;;;;4952112;29;20038;-81
2023/04/24 09:07:05;;;;;;;0.82;0.52;;;12.00;99.90;;;;;;4953845;29;20039;-81
2023/04/24 09:09:32;;;;;;;1.52;0.90;;;11.90;99.90;;;;;;4947920;28;20052;-82
2023/04/24 09:12:00;;;;;;;2.78;0.77;;;11.60;99.90;;;;;;4953791;28;20391;-82
2023/04/24 09:14:27;;;;;;;3.70;1.00;;;11.60;99.90;;;;;;4951094;28;20023;-82
2023/04/24 09:16:53;;;;;;;1.70;0.90;;;11.50;99.90;;;;;;4952403;29;20138;-81
2023/04/24 09:19:21;;;;;;;2.08;0.93;;;11.60;99.90;;;;;;4951616;28;20235;-83
2023/04/24 09:21:47;;;;;;;1.75;1.00;;;11.50;99.90;;;;;;4953731;29;20114;-81
2023/04/24 09:24:22;;;;;;;1.67;0.70;;;11.60;99.90;;;;;;4950816;28;20058;-82
2023/04/24 09:26:57;;;;;;;1.40;0.90;;;11.70;99.90;;;;;;4953715;28;20039;-83
2023/04/24 09:29:22;;;;;;;2.92;0.80;;;11.80;99.90;;;;;;4946371;29;20019;-81
2023/04/24 09:31:48;;;;;;;4.03;0.75;;;11.90;99.90;;;;;;4953506;28;20042;-82
2023/04/24 09:34:14;;;;;;;3.42;1.17;;;12.00;99.90;;;;;;4946059;28;20191;-81
2023/04/24 09:36:42;;;;;;;10.10;1.48;;;12.10;99.90;;;;;;4966717;23;20063;-68
2023/04/24 09:39:15;;;;;;;1.05;0.73;;;12.00;99.90;;;;;;4948043;29;20039;-68
2023/04/24 09:41:48;;;;;;;2.08;1.30;;;12.20;99.90;;;;;;4931766;29;20032;-69
2023/04/24 09:44:23;;;;;;;0.80;0.63;;;12.10;99.90;;;;;;4931576;29;20262;-69
2023/04/24 09:46:57;;;;;;;1.52;1.00;;;12.00;99.90;;;;;;4927506;29;20074;-69
2023/04/24 09:49:26;;;;;;;1.13;0.68;;;11.90;99.90;;;;;;4914827;29;20028;-69
2023/04/24 09:52:09;;;;;;;2.38;1.08;;;12.00;99.90;;;;;;4914732;29;20036;-69
2023/04/24 09:54:39;;;;;;;1.90;0.93;;;12.00;99.90;;;;;;4927488;29;20059;-69
2023/04/24 09:57:07;;;;;;;7.07;0.93;;;11.90;99.90;;;;;;4925552;29;20481;-68
2023/04/24 09:59:33;;;;;;;0.77;0.57;;;11.90;99.90;;;;;;4929090;29;20044;-68
2023/04/24 10:02:00;;;;;;;5.43;0.65;;;11.80;99.90;;;;;;4911507;29;20107;-68
2023/04/24 10:04:28;;;;;;;1.83;1.17;;;11.80;99.90;;;;;;4929287;29;20028;-68
2023/04/24 10:06:57;;;;;;;1.52;0.90;;;11.90;99.90;;;;;;4926296;29;20036;-68
2023/04/24 10:09:26;;;;;;;1.30;0.80;;;12.10;99.90;;;;;;4914721;29;20024;-68
2023/04/24 10:11:54;;;;;;;0.65;0.60;;;12.30;99.90;;;;;;4911863;29;20043;-68
2023/04/24 10:14:24;;;;;;;1.33;0.93;;;12.50;99.90;;;;;;4912390;29;20046;-68
2023/04/24 10:16:53;;;;;;;2.80;1.08;;;12.50;99.90;;;;;;4926882;29;20035;-68
2023/04/24 10:19:19;;;;;;;3.47;0.80;;;12.40;99.90;;;;;;4928469;29;20381;-68
2023/04/24 10:21:46;;;;;;;0.98;0.85;;;12.20;99.90;;;;;;4912940;29;20407;-68
2023/04/24 10:24:22;;;;;;;2.00;1.02;;;12.30;99.90;;;;;;4913014;29;20157;-68
2023/04/24 10:26:48;;;;;;;0.93;0.77;;;12.40;99.90;;;;;;4912493;29;20035;-69
2023/04/24 10:29:18;;;;;;;1.67;0.70;;;12.00;99.90;;;;;;4911899;29;20431;-69
2023/04/24 10:31:45;;;;;;;1.35;0.70;;;12.20;99.90;;;;;;4927562;29;20126;-69
2023/04/24 10:34:11;;;;;;;0.70;0.28;;;12.40;99.90;;;;;;4912622;29;20036;-69
2023/04/24 10:37:01;;;;;;;1.13;0.70;;;12.70;99.90;;;;;;4927739;29;20176;-69
2023/04/24 10:39:27;;;;;;;0.63;0.32;;;12.70;99.90;;;;;;4926405;29;20511;-68
2023/04/24 10:41:57;;;;;;;1.92;1.23;;;13.00;99.90;;;;;;4926211;29;20040;-68
2023/04/24 10:44:22;;;;;;;1.48;0.65;;;13.20;99.90;;;;;;4912807;29;20040;-67
2023/04/24 10:46:55;;;;;;;2.90;1.05;;;13.20;99.90;;;;;;4912005;29;20032;-69
2023/04/24 10:49:31;;;;;;;3.83;0.90;;;12.90;99.90;;;;;;4914003;29;20036;-68
2023/04/24 10:52:07;;;;;;;3.05;1.00;;;13.00;99.90;;;;;;4910976;29;20048;-69
2023/04/24 10:54:46;;;;;;;1.65;0.98;;;12.90;99.90;;;;;;4924821;29;20035;-68
2023/04/24 10:57:21;;;;;;;2.50;1.30;;;12.90;99.90;;;;;;4897212;29;20044;-69
2023/04/24 11:00:12;;;;;;;2.22;1.08;;;12.70;99.90;;;;;;4914253;29;20031;-70
2023/04/24 11:02:40;;;;;;;1.98;1.08;;;12.70;99.90;;;;;;4910073;29;20036;-68
2023/04/24 11:05:07;;;;;;;1.70;0.70;;;12.60;99.90;;;;;;4914451;29;20132;-68
2023/04/24 11:08:10;;;;;;;1.55;1.08;;;12.50;99.90;;;;;;4910477;29;20244;-69
2023/04/24 11:10:46;;;;;;;2.83;1.85;;;12.30;99.90;;;;;;4908139;29;20547;-69
2023/04/24 11:13:22;;;;;;;1.30;0.88;;;12.30;99.90;;;;;;4926769;29;20407;-68
2023/04/24 11:16:20;;;;;;;1.83;1.05;;;12.30;99.90;;;;;;4917844;29;20087;-69
2023/04/24 11:18:54;;;;;;;4.80;1.15;;;12.30;99.90;;;;;;4914002;29;20206;-69
2023/04/24 11:21:22;;;;;;;0.85;0.73;;;12.50;99.90;;;;;;4932117;29;20451;-69
2023/04/24 11:23:47;;;;;;;1.30;0.80;;;12.70;99.90;;;;;;4924914;29;20036;-70
2023/04/24 11:26:21;;;;;;;3.75;1.40;;;12.60;99.90;;;;;;4916228;29;20047;-70
2023/04/24 11:28:51;;;;;;;1.20;0.85;;;12.50;99.90;;;;;;4924996;29;20028;-70
2023/04/24 11:31:38;;;;;;;2.03;0.93;;;12.70;99.90;;;;;;4916928;29;20032;-70
2023/04/24 11:34:13;;;;;;;2.28;0.93;;;12.70;99.90;;;;;;4926539;29;20496;-70
2023/04/24 11:36:42;;;;;;;3.38;1.02;;;12.90;99.90;;;;;;4930898;29;20103;-70
2023/04/24 11:39:08;;;;;;;2.65;1.15;;;12.80;99.90;;;;;;4915429;29;20103;-70
2023/04/24 11:41:35;;;;;;;1.55;0.77;;;13.00;99.90;;;;;;4916828;29;20480;-70
2023/04/24 11:44:02;;;;;;;1.42;1.17;;;13.30;99.90;;;;;;4913856;29;20085;-70
2023/04/24 11:46:31;;;;;;;4.35;1.50;;;13.30;99.90;;;;;;4931736;29;20044;-70
2023/04/24 11:48:59;;;;;;;3.55;1.90;;;13.30;99.90;;;;;;4925394;29;20035;-69
2023/04/24 11:51:26;;;;;;;2.58;1.20;;;12.80;99.90;;;;;;4912798;29;20020;-69
2023/04/24 11:53:55;;;;;;;1.55;0.93;;;12.80;99.90;;;;;;4913486;29;20036;-70
2023/04/24 11:56:25;;;;;;;1.90;1.25;;;12.70;99.90;;;;;;4917083;29;20028;-69
2023/04/24 11:58:54;;;;;;;2.55;1.33;;;12.60;99.90;;;;;;4913470;29;20508;-69
2023/04/24 12:01:20;;;;;;;3.03;1.15;;;12.40;99.90;;;;;;4917115;29;20110;-69
2023/04/24 12:03:58;;;;;;;1.08;0.70;;;12.40;99.90;;;;;;4924545;29;20711;-69
2023/04/24 12:06:25;;;;;;;5.22;1.67;;;12.40;99.90;;;;;;4897959;29;20057;-69
2023/04/24 12:08:54;;;;;;;6.03;1.75;;;12.40;99.90;;;;;;4912929;29;20523;-69
2023/04/24 12:11:20;;;;;;;6.25;1.20;;;12.50;99.90;;;;;;4931177;29;20485;-69
2023/04/24 12:13:46;;;;;;;1.83;1.30;;;12.80;99.90;;;;;;4924535;29;20035;-69
2023/04/24 12:16:12;;;;;;;2.30;1.10;;;13.00;99.90;;;;;;4929832;29;20031;-69
2023/04/24 12:18:43;;;;;;;2.30;1.48;;;13.50;99.90;;;;;;4924282;29;20024;-68
2023/04/24 12:21:20;;;;;;;;;;;14.10;99.90;;;;;;4915339;29;20103;-68
2023/04/24 12:23:46;;;;;;;1.85;0.90;;;14.40;99.90;;;;;;4911555;29;19923;-68
2023/04/24 12:26:19;;;;;;;4.38;1.45;;;14.00;99.90;;;;;;4916733;29;20031;-68
2023/04/24 12:28:49;;;;;;;3.22;1.55;;;13.70;99.90;;;;;;4924114;29;20362;-68
2023/04/24 12:31:16;;;;;;;5.63;1.33;;;13.50;99.90;;;;;;4915421;29;20115;-68
2023/04/24 12:33:43;;;;;;;2.15;1.15;;;13.10;99.90;;;;;;4924027;29;20112;-68
2023/04/24 12:36:12;;;;;;;6.18;1.08;;;13.00;99.90;;;;;;4928885;29;20024;-68
2023/04/24 12:38:41;;;;;;;5.43;1.48;;;13.10;99.90;;;;;;4923707;29;20037;-69
2023/04/24 12:41:10;;;;;;;1.92;1.23;;;12.90;99.90;;;;;;4914326;29;20059;-69
2023/04/24 12:43:36;;;;;;;2.95;1.77;;;13.20;99.90;;;;;;4912494;29;20583;-69
2023/04/24 12:46:03;;;;;;;2.70;1.40;;;13.30;99.90;;;;;;4916541;29;20035;-69
2023/04/24 12:48:29;;;;;;;9.70;1.50;;;13.10;99.90;;;;;;4912593;29;20028;-69